sensor_id;sensor_type;location;lat;lon;timestamp;temperature;humidity
17437;DHT22;70275;52.198;5.422;2023-05-29T00:00:08;10.70;82.20
17437;DHT22;70275;52.198;5.422;2023-05-29T00:02:39;10.90;82.00
17437;DHT22;70275;52.198;5.422;2023-05-29T00:05:09;10.70;82.20
17437;DHT22;70275;52.198;5.422;2023-05-29T00:07:39;10.80;82.30
17437;DHT22;70275;52.198;5.422;2023-05-29T00:10:12;10.90;81.90
17437;DHT22;70275;52.198;5.422;2023-05-29T00:12:41;10.90;81.70
17437;DHT22;70275;52.198;5.422;2023-05-29T00:15:10;10.90;81.50
17437;DHT22;70275;52.198;5.422;2023-05-29T00:17:39;11.00;81.20
17437;DHT22;70275;52.198;5.422;2023-05-29T00:20:10;10.80;81.70
17437;DHT22;70275;52.198;5.422;2023-05-29T00:22:40;10.90;81.40
17437;DHT22;70275;52.198;5.422;2023-05-29T00:25:12;10.90;81.20
17437;DHT22;70275;52.198;5.422;2023-05-29T00:27:41;10.90;81.40
17437;DHT22;70275;52.198;5.422;2023-05-29T00:30:11;10.90;81.10
17437;DHT22;70275;52.198;5.422;2023-05-29T00:32:40;10.80;81.50
17437;DHT22;70275;52.198;5.422;2023-05-29T00:35:09;10.80;81.40
17437;DHT22;70275;52.198;5.422;2023-05-29T00:37:38;10.80;81.20
17437;DHT22;70275;52.198;5.422;2023-05-29T00:40:08;10.70;81.20
17437;DHT22;70275;52.198;5.422;2023-05-29T00:42:41;10.70;81.00
17437;DHT22;70275;52.198;5.422;2023-05-29T00:45:10;10.70;81.00
17437;DHT22;70275;52.198;5.422;2023-05-29T00:47:39;10.90;80.70
17437;DHT22;70275;52.198;5.422;2023-05-29T00:50:10;10.80;80.40
17437;DHT22;70275;52.198;5.422;2023-05-29T00:52:42;10.60;80.90
17437;DHT22;70275;52.198;5.422;2023-05-29T00:55:13;10.50;80.90
17437;DHT22;70275;52.198;5.422;2023-05-29T00:57:45;10.60;81.00
17437;DHT22;70275;52.198;5.422;2023-05-29T01:00:16;10.60;80.80
17437;DHT22;70275;52.198;5.422;2023-05-29T01:02:46;10.60;80.60
17437;DHT22;70275;52.198;5.422;2023-05-29T01:05:18;10.50;80.90
17437;DHT22;70275;52.198;5.422;2023-05-29T01:07:47;10.40;81.00
17437;DHT22;70275;52.198;5.422;2023-05-29T01:10:16;10.40;81.20
17437;DHT22;70275;52.198;5.422;2023-05-29T01:12:51;10.40;81.30
17437;DHT22;70275;52.198;5.422;2023-05-29T01:15:35;10.30;81.60
17437;DHT22;70275;52.198;5.422;2023-05-29T01:18:30;10.30;81.30
17437;DHT22;70275;52.198;5.422;2023-05-29T01:21:13;10.40;81.30
17437;DHT22;70275;52.198;5.422;2023-05-29T01:23:54;10.20;81.90
17437;DHT22;70275;52.198;5.422;2023-05-29T01:26:46;10.10;82.20
17437;DHT22;70275;52.198;5.422;2023-05-29T01:29:21;10.00;82.40
17437;DHT22;70275;52.198;5.422;2023-05-29T01:31:53;10.00;82.50
17437;DHT22;70275;52.198;5.422;2023-05-29T01:34:22;10.10;82.40
17437;DHT22;70275;52.198;5.422;2023-05-29T01:36:51;10.20;81.90
17437;DHT22;70275;52.198;5.422;2023-05-29T01:39:20;10.20;82.00
17437;DHT22;70275;52.198;5.422;2023-05-29T01:41:53;10.10;81.90
17437;DHT22;70275;52.198;5.422;2023-05-29T01:44:23;10.10;81.80
17437;DHT22;70275;52.198;5.422;2023-05-29T01:46:54;10.10;82.10
17437;DHT22;70275;52.198;5.422;2023-05-29T01:49:23;10.20;81.70
17437;DHT22;70275;52.198;5.422;2023-05-29T01:51:55;10.20;81.80
17437;DHT22;70275;52.198;5.422;2023-05-29T01:54:24;10.00;82.20
17437;DHT22;70275;52.198;5.422;2023-05-29T01:56:55;9.90;82.70
17437;DHT22;70275;52.198;5.422;2023-05-29T01:59:25;9.90;82.60
17437;DHT22;70275;52.198;5.422;2023-05-29T02:01:54;9.90;82.40
17437;DHT22;70275;52.198;5.422;2023-05-29T02:04:23;9.90;82.50
17437;DHT22;70275;52.198;5.422;2023-05-29T02:06:52;9.80;82.80
17437;DHT22;70275;52.198;5.422;2023-05-29T02:09:21;9.70;83.00
17437;DHT22;70275;52.198;5.422;2023-05-29T02:11:50;9.70;83.10
17437;DHT22;70275;52.198;5.422;2023-05-29T02:14:22;9.70;83.10
17437;DHT22;70275;52.198;5.422;2023-05-29T02:16:51;9.70;83.10
17437;DHT22;70275;52.198;5.422;2023-05-29T02:19:22;9.70;83.10
17437;DHT22;70275;52.198;5.422;2023-05-29T02:21:53;9.60;83.10
17437;DHT22;70275;52.198;5.422;2023-05-29T02:24:22;9.60;83.10
17437;DHT22;70275;52.198;5.422;2023-05-29T02:26:51;9.60;83.10
17437;DHT22;70275;52.198;5.422;2023-05-29T02:29:23;9.50;83.10
17437;DHT22;70275;52.198;5.422;2023-05-29T02:31:51;9.50;83.10
17437;DHT22;70275;52.198;5.422;2023-05-29T02:34:20;9.50;83.10
17437;DHT22;70275;52.198;5.422;2023-05-29T02:36:50;9.60;83.10
17437;DHT22;70275;52.198;5.422;2023-05-29T02:39:20;9.40;83.10
17437;DHT22;70275;52.198;5.422;2023-05-29T02:41:49;9.40;83.10
17437;DHT22;70275;52.198;5.422;2023-05-29T02:44:18;9.40;83.10
17437;DHT22;70275;52.198;5.422;2023-05-29T02:46:50;9.40;83.10
17437;DHT22;70275;52.198;5.422;2023-05-29T02:49:19;9.40;83.10
17437;DHT22;70275;52.198;5.422;2023-05-29T02:51:47;9.30;83.10
17437;DHT22;70275;52.198;5.422;2023-05-29T02:54:17;9.30;83.10
17437;DHT22;70275;52.198;5.422;2023-05-29T02:56:46;9.30;83.10
17437;DHT22;70275;52.198;5.422;2023-05-29T02:59:15;9.20;83.10
17437;DHT22;70275;52.198;5.422;2023-05-29T03:01:44;9.20;83.10
17437;DHT22;70275;52.198;5.422;2023-05-29T03:04:16;9.10;83.10
17437;DHT22;70275;52.198;5.422;2023-05-29T03:06:46;9.20;83.10
17437;DHT22;70275;52.198;5.422;2023-05-29T03:09:14;9.30;83.10
17437;DHT22;70275;52.198;5.422;2023-05-29T03:11:44;9.30;83.10
17437;DHT22;70275;52.198;5.422;2023-05-29T03:14:13;9.10;83.10
17437;DHT22;70275;52.198;5.422;2023-05-29T03:16:43;9.20;83.10
17437;DHT22;70275;52.198;5.422;2023-05-29T03:19:12;9.20;83.10
17437;DHT22;70275;52.198;5.422;2023-05-29T03:21:44;9.30;83.10
17437;DHT22;70275;52.198;5.422;2023-05-29T03:24:13;9.20;83.10
17437;DHT22;70275;52.198;5.422;2023-05-29T03:26:43;9.20;83.10
17437;DHT22;70275;52.198;5.422;2023-05-29T03:29:12;9.20;83.10
17437;DHT22;70275;52.198;5.422;2023-05-29T03:31:42;9.20;83.10
17437;DHT22;70275;52.198;5.422;2023-05-29T03:34:11;9.20;83.10
17437;DHT22;70275;52.198;5.422;2023-05-29T03:36:40;9.20;83.10
17437;DHT22;70275;52.198;5.422;2023-05-29T03:39:12;9.30;83.10
17437;DHT22;70275;52.198;5.422;2023-05-29T03:41:41;9.20;83.10
17437;DHT22;70275;52.198;5.422;2023-05-29T03:44:10;9.20;83.10
17437;DHT22;70275;52.198;5.422;2023-05-29T03:46:39;9.20;83.10
17437;DHT22;70275;52.198;5.422;2023-05-29T03:49:08;9.10;83.10
17437;DHT22;70275;52.198;5.422;2023-05-29T03:51:37;9.10;83.10
17437;DHT22;70275;52.198;5.422;2023-05-29T03:54:09;9.10;83.10
17437;DHT22;70275;52.198;5.422;2023-05-29T03:56:38;9.10;83.10
17437;DHT22;70275;52.198;5.422;2023-05-29T03:59:06;9.10;83.10
17437;DHT22;70275;52.198;5.422;2023-05-29T04:01:35;9.10;83.10
17437;DHT22;70275;52.198;5.422;2023-05-29T04:04:04;9.20;83.10
17437;DHT22;70275;52.198;5.422;2023-05-29T04:06:33;9.20;83.10
17437;DHT22;70275;52.198;5.422;2023-05-29T04:09:04;9.10;83.10
17437;DHT22;70275;52.198;5.422;2023-05-29T04:11:36;9.10;83.10
17437;DHT22;70275;52.198;5.422;2023-05-29T04:14:07;9.00;83.10
17437;DHT22;70275;52.198;5.422;2023-05-29T04:16:36;9.00;83.10
17437;DHT22;70275;52.198;5.422;2023-05-29T04:19:05;9.10;83.10
17437;DHT22;70275;52.198;5.422;2023-05-29T04:21:34;9.10;83.10
17437;DHT22;70275;52.198;5.422;2023-05-29T04:24:03;9.00;83.10
17437;DHT22;70275;52.198;5.422;2023-05-29T04:26:33;9.20;83.10
17437;DHT22;70275;52.198;5.422;2023-05-29T04:29:06;9.00;83.10
17437;DHT22;70275;52.198;5.422;2023-05-29T04:31:38;9.10;83.10
17437;DHT22;70275;52.198;5.422;2023-05-29T04:34:07;9.20;83.10
17437;DHT22;70275;52.198;5.422;2023-05-29T04:36:36;9.20;83.10
17437;DHT22;70275;52.198;5.422;2023-05-29T04:39:06;9.30;83.10
17437;DHT22;70275;52.198;5.422;2023-05-29T04:41:38;9.30;82.90
17437;DHT22;70275;52.198;5.422;2023-05-29T04:44:08;9.40;82.80
17437;DHT22;70275;52.198;5.422;2023-05-29T04:46:37;9.40;82.50
17437;DHT22;70275;52.198;5.422;2023-05-29T04:49:09;9.40;82.60
17437;DHT22;70275;52.198;5.422;2023-05-29T04:51:38;9.50;82.60
17437;DHT22;70275;52.198;5.422;2023-05-29T04:54:09;9.60;82.20
17437;DHT22;70275;52.198;5.422;2023-05-29T04:56:41;9.60;82.20
17437;DHT22;70275;52.198;5.422;2023-05-29T04:59:10;9.60;82.00
17437;DHT22;70275;52.198;5.422;2023-05-29T05:01:39;9.60;82.00
17437;DHT22;70275;52.198;5.422;2023-05-29T05:04:08;9.60;82.30
17437;DHT22;70275;52.198;5.422;2023-05-29T05:06:37;9.80;81.80
17437;DHT22;70275;52.198;5.422;2023-05-29T05:09:06;10.00;81.00
17437;DHT22;70275;52.198;5.422;2023-05-29T05:11:35;10.00;80.50
17437;DHT22;70275;52.198;5.422;2023-05-29T05:14:07;9.90;81.20
17437;DHT22;70275;52.198;5.422;2023-05-29T05:16:36;10.00;81.20
17437;DHT22;70275;52.198;5.422;2023-05-29T05:19:05;10.10;81.00
17437;DHT22;70275;52.198;5.422;2023-05-29T05:21:33;10.20;81.00
17437;DHT22;70275;52.198;5.422;2023-05-29T05:24:03;10.10;80.80
17437;DHT22;70275;52.198;5.422;2023-05-29T05:26:32;10.40;80.40
17437;DHT22;70275;52.198;5.422;2023-05-29T05:29:00;10.60;79.90
17437;DHT22;70275;52.198;5.422;2023-05-29T05:31:32;10.50;79.30
17437;DHT22;70275;52.198;5.422;2023-05-29T05:34:01;10.50;79.80
17437;DHT22;70275;52.198;5.422;2023-05-29T05:36:30;10.70;79.40
17437;DHT22;70275;52.198;5.422;2023-05-29T05:38:59;10.70;79.00
17437;DHT22;70275;52.198;5.422;2023-05-29T05:41:28;11.00;78.50
17437;DHT22;70275;52.198;5.422;2023-05-29T05:43:57;11.10;78.70
17437;DHT22;70275;52.198;5.422;2023-05-29T05:46:26;11.20;78.20
17437;DHT22;70275;52.198;5.422;2023-05-29T05:48:57;11.30;77.70
17437;DHT22;70275;52.198;5.422;2023-05-29T05:51:27;11.20;77.90
17437;DHT22;70275;52.198;5.422;2023-05-29T05:53:56;11.70;76.70
17437;DHT22;70275;52.198;5.422;2023-05-29T05:56:25;11.50;75.90
17437;DHT22;70275;52.198;5.422;2023-05-29T05:58:54;11.60;75.00
17437;DHT22;70275;52.198;5.422;2023-05-29T06:01:23;11.60;75.00
17437;DHT22;70275;52.198;5.422;2023-05-29T06:03:52;11.70;74.30
17437;DHT22;70275;52.198;5.422;2023-05-29T06:06:23;11.80;72.70
17437;DHT22;70275;52.198;5.422;2023-05-29T06:08:53;11.90;70.90
17437;DHT22;70275;52.198;5.422;2023-05-29T06:11:22;11.70;71.10
17437;DHT22;70275;52.198;5.422;2023-05-29T06:13:51;12.10;70.30
17437;DHT22;70275;52.198;5.422;2023-05-29T06:16:20;12.30;70.00
17437;DHT22;70275;52.198;5.422;2023-05-29T06:18:49;12.10;69.80
17437;DHT22;70275;52.198;5.422;2023-05-29T06:21:18;12.10;70.10
17437;DHT22;70275;52.198;5.422;2023-05-29T06:23:49;12.20;69.00
17437;DHT22;70275;52.198;5.422;2023-05-29T06:26:18;12.40;68.60
17437;DHT22;70275;52.198;5.422;2023-05-29T06:28:47;12.40;67.40
17437;DHT22;70275;52.198;5.422;2023-05-29T06:31:16;12.50;68.10
17437;DHT22;70275;52.198;5.422;2023-05-29T06:33:46;12.50;68.20
17437;DHT22;70275;52.198;5.422;2023-05-29T06:36:16;12.80;67.60
17437;DHT22;70275;52.198;5.422;2023-05-29T06:38:51;12.80;67.20
17437;DHT22;70275;52.198;5.422;2023-05-29T06:41:20;12.80;66.70
17437;DHT22;70275;52.198;5.422;2023-05-29T06:43:49;12.60;66.50
17437;DHT22;70275;52.198;5.422;2023-05-29T06:46:18;12.70;66.50
17437;DHT22;70275;52.198;5.422;2023-05-29T06:48:47;12.80;65.70
17437;DHT22;70275;52.198;5.422;2023-05-29T06:51:18;12.90;66.20
17437;DHT22;70275;52.198;5.422;2023-05-29T06:53:46;13.00;65.70
17437;DHT22;70275;52.198;5.422;2023-05-29T06:56:18;13.10;64.00
17437;DHT22;70275;52.198;5.422;2023-05-29T06:58:47;13.40;64.40
17437;DHT22;70275;52.198;5.422;2023-05-29T07:01:16;13.40;62.40
17437;DHT22;70275;52.198;5.422;2023-05-29T07:03:46;13.10;63.10
17437;DHT22;70275;52.198;5.422;2023-05-29T07:06:20;13.60;62.40
17437;DHT22;70275;52.198;5.422;2023-05-29T07:08:51;13.70;61.00
17437;DHT22;70275;52.198;5.422;2023-05-29T07:11:20;14.00;61.00
17437;DHT22;70275;52.198;5.422;2023-05-29T07:13:49;13.80;61.80
17437;DHT22;70275;52.198;5.422;2023-05-29T07:16:18;13.50;62.30
17437;DHT22;70275;52.198;5.422;2023-05-29T07:18:47;13.50;61.60
17437;DHT22;70275;52.198;5.422;2023-05-29T07:21:17;13.50;61.90
17437;DHT22;70275;52.198;5.422;2023-05-29T07:23:46;13.70;61.60
17437;DHT22;70275;52.198;5.422;2023-05-29T07:26:17;13.50;61.90
17437;DHT22;70275;52.198;5.422;2023-05-29T07:28:47;14.00;60.60
17437;DHT22;70275;52.198;5.422;2023-05-29T07:31:16;14.10;60.50
17437;DHT22;70275;52.198;5.422;2023-05-29T07:33:45;13.90;61.30
17437;DHT22;70275;52.198;5.422;2023-05-29T07:36:15;13.90;62.00
17437;DHT22;70275;52.198;5.422;2023-05-29T07:38:44;14.10;60.00
17437;DHT22;70275;52.198;5.422;2023-05-29T07:41:18;13.60;61.20
17437;DHT22;70275;52.198;5.422;2023-05-29T07:43:47;13.80;61.20
17437;DHT22;70275;52.198;5.422;2023-05-29T07:46:18;14.10;60.90
17437;DHT22;70275;52.198;5.422;2023-05-29T07:48:47;13.80;61.10
17437;DHT22;70275;52.198;5.422;2023-05-29T07:51:16;14.30;60.60
17437;DHT22;70275;52.198;5.422;2023-05-29T07:53:45;14.40;60.00
17437;DHT22;70275;52.198;5.422;2023-05-29T07:56:17;14.30;59.40
17437;DHT22;70275;52.198;5.422;2023-05-29T07:58:46;14.70;58.90
17437;DHT22;70275;52.198;5.422;2023-05-29T08:01:18;15.20;57.30
17437;DHT22;70275;52.198;5.422;2023-05-29T08:03:46;15.20;56.80
17437;DHT22;70275;52.198;5.422;2023-05-29T08:06:15;15.60;57.50
17437;DHT22;70275;52.198;5.422;2023-05-29T08:08:44;14.80;58.30
17437;DHT22;70275;52.198;5.422;2023-05-29T08:11:13;14.90;58.40
17437;DHT22;70275;52.198;5.422;2023-05-29T08:13:45;14.80;58.10
17437;DHT22;70275;52.198;5.422;2023-05-29T08:16:14;14.50;60.10
17437;DHT22;70275;52.198;5.422;2023-05-29T08:18:43;14.80;60.10
17437;DHT22;70275;52.198;5.422;2023-05-29T08:21:12;14.20;60.60
17437;DHT22;70275;52.198;5.422;2023-05-29T08:23:41;14.40;58.70
17437;DHT22;70275;52.198;5.422;2023-05-29T08:26:10;14.50;59.60
17437;DHT22;70275;52.198;5.422;2023-05-29T08:28:41;15.30;55.90
17437;DHT22;70275;52.198;5.422;2023-05-29T08:31:10;14.80;57.90
17437;DHT22;70275;52.198;5.422;2023-05-29T08:33:39;14.80;57.20
17437;DHT22;70275;52.198;5.422;2023-05-29T08:36:08;15.20;56.60
17437;DHT22;70275;52.198;5.422;2023-05-29T08:38:37;15.40;56.60
17437;DHT22;70275;52.198;5.422;2023-05-29T08:41:07;15.10;57.70
17437;DHT22;70275;52.198;5.422;2023-05-29T08:43:37;15.10;55.70
17437;DHT22;70275;52.198;5.422;2023-05-29T08:46:12;14.40;57.80
17437;DHT22;70275;52.198;5.422;2023-05-29T08:48:47;14.80;58.70
17437;DHT22;70275;52.198;5.422;2023-05-29T08:51:19;15.30;57.30
17437;DHT22;70275;52.198;5.422;2023-05-29T08:53:51;15.40;56.80
17437;DHT22;70275;52.198;5.422;2023-05-29T08:56:20;15.60;55.50
17437;DHT22;70275;52.198;5.422;2023-05-29T08:58:53;15.40;54.90
17437;DHT22;70275;52.198;5.422;2023-05-29T09:01:23;15.50;55.00
17437;DHT22;70275;52.198;5.422;2023-05-29T09:03:53;15.10;55.90
17437;DHT22;70275;52.198;5.422;2023-05-29T09:06:23;15.60;55.20
17437;DHT22;70275;52.198;5.422;2023-05-29T09:08:52;15.40;55.00
17437;DHT22;70275;52.198;5.422;2023-05-29T09:11:21;15.40;55.90
17437;DHT22;70275;52.198;5.422;2023-05-29T09:13:54;15.70;53.10
17437;DHT22;70275;52.198;5.422;2023-05-29T09:16:23;15.80;53.90
17437;DHT22;70275;52.198;5.422;2023-05-29T09:18:52;15.40;52.20
17437;DHT22;70275;52.198;5.422;2023-05-29T09:21:33;15.50;56.70
17437;DHT22;70275;52.198;5.422;2023-05-29T09:24:05;15.80;53.60
17437;DHT22;70275;52.198;5.422;2023-05-29T09:26:37;15.60;53.70
17437;DHT22;70275;52.198;5.422;2023-05-29T09:29:09;16.20;55.30
17437;DHT22;70275;52.198;5.422;2023-05-29T09:31:45;16.00;52.80
17437;DHT22;70275;52.198;5.422;2023-05-29T09:34:15;16.00;53.70
17437;DHT22;70275;52.198;5.422;2023-05-29T09:36:44;16.00;54.20
17437;DHT22;70275;52.198;5.422;2023-05-29T09:39:13;16.30;53.70
17437;DHT22;70275;52.198;5.422;2023-05-29T09:41:42;16.80;52.30
17437;DHT22;70275;52.198;5.422;2023-05-29T09:44:15;16.40;53.20
17437;DHT22;70275;52.198;5.422;2023-05-29T09:46:48;16.10;55.30
17437;DHT22;70275;52.198;5.422;2023-05-29T09:49:22;16.50;52.80
17437;DHT22;70275;52.198;5.422;2023-05-29T09:51:53;16.20;53.30
17437;DHT22;70275;52.198;5.422;2023-05-29T09:54:27;16.40;52.20
17437;DHT22;70275;52.198;5.422;2023-05-29T09:56:58;16.20;52.90
17437;DHT22;70275;52.198;5.422;2023-05-29T09:59:33;16.30;53.20
17437;DHT22;70275;52.198;5.422;2023-05-29T10:02:04;16.40;53.30
17437;DHT22;70275;52.198;5.422;2023-05-29T10:04:37;16.20;52.90
17437;DHT22;70275;52.198;5.422;2023-05-29T10:07:10;17.10;50.00
17437;DHT22;70275;52.198;5.422;2023-05-29T10:09:50;17.00;48.30
17437;DHT22;70275;52.198;5.422;2023-05-29T10:12:23;16.30;50.40
17437;DHT22;70275;52.198;5.422;2023-05-29T10:14:57;16.60;51.00
17437;DHT22;70275;52.198;5.422;2023-05-29T10:17:33;17.30;49.10
17437;DHT22;70275;52.198;5.422;2023-05-29T10:20:06;17.50;48.90
17437;DHT22;70275;52.198;5.422;2023-05-29T10:22:45;17.30;49.20
17437;DHT22;70275;52.198;5.422;2023-05-29T10:25:18;17.10;49.90
17437;DHT22;70275;52.198;5.422;2023-05-29T10:27:49;16.80;50.50
17437;DHT22;70275;52.198;5.422;2023-05-29T10:30:29;16.80;51.50
17437;DHT22;70275;52.198;5.422;2023-05-29T10:33:21;17.00;50.10
17437;DHT22;70275;52.198;5.422;2023-05-29T10:36:14;17.10;51.20
17437;DHT22;70275;52.198;5.422;2023-05-29T10:38:48;16.70;52.30
17437;DHT22;70275;52.198;5.422;2023-05-29T10:41:31;16.60;52.40
17437;DHT22;70275;52.198;5.422;2023-05-29T10:44:37;16.70;53.30
17437;DHT22;70275;52.198;5.422;2023-05-29T10:47:11;17.30;50.60
17437;DHT22;70275;52.198;5.422;2023-05-29T10:49:49;18.30;47.50
17437;DHT22;70275;52.198;5.422;2023-05-29T10:52:19;18.90;45.70
17437;DHT22;70275;52.198;5.422;2023-05-29T10:54:53;19.10;45.70
17437;DHT22;70275;52.198;5.422;2023-05-29T10:57:24;18.30;43.20
17437;DHT22;70275;52.198;5.422;2023-05-29T11:00:03;17.30;46.80
17437;DHT22;70275;52.198;5.422;2023-05-29T11:02:41;18.30;45.40
17437;DHT22;70275;52.198;5.422;2023-05-29T11:05:22;19.20;44.00
17437;DHT22;70275;52.198;5.422;2023-05-29T11:07:54;18.40;46.90
17437;DHT22;70275;52.198;5.422;2023-05-29T11:10:43;18.10;46.90
17437;DHT22;70275;52.198;5.422;2023-05-29T11:13:27;18.70;45.20
17437;DHT22;70275;52.198;5.422;2023-05-29T11:16:14;19.00;45.50
17437;DHT22;70275;52.198;5.422;2023-05-29T11:18:52;20.30;42.90
17437;DHT22;70275;52.198;5.422;2023-05-29T11:21:31;19.80;43.00
17437;DHT22;70275;52.198;5.422;2023-05-29T11:24:04;20.60;42.30
17437;DHT22;70275;52.198;5.422;2023-05-29T11:26:36;20.40;42.00
17437;DHT22;70275;52.198;5.422;2023-05-29T11:29:06;20.40;43.10
17437;DHT22;70275;52.198;5.422;2023-05-29T11:31:37;20.40;41.60
17437;DHT22;70275;52.198;5.422;2023-05-29T11:34:14;21.20;41.20
17437;DHT22;70275;52.198;5.422;2023-05-29T11:36:44;20.30;42.50
17437;DHT22;70275;52.198;5.422;2023-05-29T11:39:14;19.00;44.00
17437;DHT22;70275;52.198;5.422;2023-05-29T11:41:43;19.30;44.40
17437;DHT22;70275;52.198;5.422;2023-05-29T11:44:14;19.50;45.20
17437;DHT22;70275;52.198;5.422;2023-05-29T11:46:43;19.90;42.50
17437;DHT22;70275;52.198;5.422;2023-05-29T11:49:27;19.00;45.10
17437;DHT22;70275;52.198;5.422;2023-05-29T11:52:06;18.10;46.70
17437;DHT22;70275;52.198;5.422;2023-05-29T11:54:36;18.30;44.30
17437;DHT22;70275;52.198;5.422;2023-05-29T11:57:07;19.00;43.90
17437;DHT22;70275;52.198;5.422;2023-05-29T11:59:36;19.20;41.70
17437;DHT22;70275;52.198;5.422;2023-05-29T12:02:05;18.60;42.90
17437;DHT22;70275;52.198;5.422;2023-05-29T12:04:38;18.10;44.80
17437;DHT22;70275;52.198;5.422;2023-05-29T12:07:17;18.70;43.80
17437;DHT22;70275;52.198;5.422;2023-05-29T12:09:46;18.60;45.80
17437;DHT22;70275;52.198;5.422;2023-05-29T12:12:18;19.30;45.00
17437;DHT22;70275;52.198;5.422;2023-05-29T12:14:50;19.90;43.50
17437;DHT22;70275;52.198;5.422;2023-05-29T12:17:19;19.10;44.10
17437;DHT22;70275;52.198;5.422;2023-05-29T12:19:51;19.20;44.00
17437;DHT22;70275;52.198;5.422;2023-05-29T12:22:32;19.80;42.70
17437;DHT22;70275;52.198;5.422;2023-05-29T12:25:07;19.10;45.00
17437;DHT22;70275;52.198;5.422;2023-05-29T12:27:39;20.20;44.40
17437;DHT22;70275;52.198;5.422;2023-05-29T12:30:13;20.10;41.60
17437;DHT22;70275;52.198;5.422;2023-05-29T12:32:49;20.40;40.90
17437;DHT22;70275;52.198;5.422;2023-05-29T12:35:23;19.00;42.70
17437;DHT22;70275;52.198;5.422;2023-05-29T12:37:55;20.80;40.60
17437;DHT22;70275;52.198;5.422;2023-05-29T12:40:26;20.90;41.10
17437;DHT22;70275;52.198;5.422;2023-05-29T12:42:57;20.10;43.10
17437;DHT22;70275;52.198;5.422;2023-05-29T12:45:29;21.30;40.60
17437;DHT22;70275;52.198;5.422;2023-05-29T12:48:00;19.80;42.90
17437;DHT22;70275;52.198;5.422;2023-05-29T12:50:34;20.50;42.30
17437;DHT22;70275;52.198;5.422;2023-05-29T12:53:06;21.20;41.50
17437;DHT22;70275;52.198;5.422;2023-05-29T12:55:37;20.90;40.40
17437;DHT22;70275;52.198;5.422;2023-05-29T12:58:09;21.20;40.10
17437;DHT22;70275;52.198;5.422;2023-05-29T13:00:40;21.30;40.30
17437;DHT22;70275;52.198;5.422;2023-05-29T13:03:10;20.60;41.60
17437;DHT22;70275;52.198;5.422;2023-05-29T13:05:42;20.10;42.50
17437;DHT22;70275;52.198;5.422;2023-05-29T13:08:11;19.50;43.80
17437;DHT22;70275;52.198;5.422;2023-05-29T13:10:40;20.10;42.00
17437;DHT22;70275;52.198;5.422;2023-05-29T13:13:09;20.40;42.90
17437;DHT22;70275;52.198;5.422;2023-05-29T13:15:38;19.50;42.80
17437;DHT22;70275;52.198;5.422;2023-05-29T13:18:07;19.50;43.60
17437;DHT22;70275;52.198;5.422;2023-05-29T13:20:36;21.50;40.00
17437;DHT22;70275;52.198;5.422;2023-05-29T13:23:07;20.10;41.60
17437;DHT22;70275;52.198;5.422;2023-05-29T13:25:37;20.70;41.20
17437;DHT22;70275;52.198;5.422;2023-05-29T13:28:06;20.60;41.00
17437;DHT22;70275;52.198;5.422;2023-05-29T13:30:35;20.30;41.60
17437;DHT22;70275;52.198;5.422;2023-05-29T13:33:04;21.00;39.70
17437;DHT22;70275;52.198;5.422;2023-05-29T13:35:33;21.40;40.20
17437;DHT22;70275;52.198;5.422;2023-05-29T13:38:01;20.80;40.80
17437;DHT22;70275;52.198;5.422;2023-05-29T13:40:33;20.30;41.60
17437;DHT22;70275;52.198;5.422;2023-05-29T13:43:02;19.90;42.60
17437;DHT22;70275;52.198;5.422;2023-05-29T13:45:31;20.00;42.40
17437;DHT22;70275;52.198;5.422;2023-05-29T13:48:00;20.90;39.10
17437;DHT22;70275;52.198;5.422;2023-05-29T13:50:30;20.50;40.00
17437;DHT22;70275;52.198;5.422;2023-05-29T13:52:58;20.40;40.90
17437;DHT22;70275;52.198;5.422;2023-05-29T13:55:28;19.80;41.40
17437;DHT22;70275;52.198;5.422;2023-05-29T13:57:59;20.00;40.40
17437;DHT22;70275;52.198;5.422;2023-05-29T14:00:28;19.70;41.40
17437;DHT22;70275;52.198;5.422;2023-05-29T14:02:57;20.00;40.50
17437;DHT22;70275;52.198;5.422;2023-05-29T14:05:26;21.60;39.00
17437;DHT22;70275;52.198;5.422;2023-05-29T14:07:55;22.90;35.80
17437;DHT22;70275;52.198;5.422;2023-05-29T14:10:24;21.50;39.10
17437;DHT22;70275;52.198;5.422;2023-05-29T14:12:53;21.30;39.90
17437;DHT22;70275;52.198;5.422;2023-05-29T14:15:25;21.40;38.10
17437;DHT22;70275;52.198;5.422;2023-05-29T14:17:54;20.60;39.70
17437;DHT22;70275;52.198;5.422;2023-05-29T14:20:23;21.20;39.30
17437;DHT22;70275;52.198;5.422;2023-05-29T14:22:51;19.70;42.00
17437;DHT22;70275;52.198;5.422;2023-05-29T14:25:21;21.30;39.70
17437;DHT22;70275;52.198;5.422;2023-05-29T14:27:50;22.50;37.70
17437;DHT22;70275;52.198;5.422;2023-05-29T14:30:19;21.20;38.90
17437;DHT22;70275;52.198;5.422;2023-05-29T14:32:50;22.20;37.20
17437;DHT22;70275;52.198;5.422;2023-05-29T14:35:19;22.30;37.00
17437;DHT22;70275;52.198;5.422;2023-05-29T14:37:48;20.80;40.10
17437;DHT22;70275;52.198;5.422;2023-05-29T14:40:17;21.40;38.20
17437;DHT22;70275;52.198;5.422;2023-05-29T14:42:46;22.50;37.40
17437;DHT22;70275;52.198;5.422;2023-05-29T14:45:16;20.60;39.50
17437;DHT22;70275;52.198;5.422;2023-05-29T14:47:45;20.70;39.10
17437;DHT22;70275;52.198;5.422;2023-05-29T14:50:17;20.00;41.20
17437;DHT22;70275;52.198;5.422;2023-05-29T14:52:46;21.90;38.40
17437;DHT22;70275;52.198;5.422;2023-05-29T14:55:15;21.90;39.30
17437;DHT22;70275;52.198;5.422;2023-05-29T14:57:44;20.90;40.30
17437;DHT22;70275;52.198;5.422;2023-05-29T15:00:14;21.90;36.70
17437;DHT22;70275;52.198;5.422;2023-05-29T15:02:44;21.30;38.30
17437;DHT22;70275;52.198;5.422;2023-05-29T15:05:13;21.20;38.20
17437;DHT22;70275;52.198;5.422;2023-05-29T15:07:46;21.40;39.00
17437;DHT22;70275;52.198;5.422;2023-05-29T15:10:15;21.90;37.50
17437;DHT22;70275;52.198;5.422;2023-05-29T15:12:46;20.90;39.90
17437;DHT22;70275;52.198;5.422;2023-05-29T15:15:15;22.00;37.10
17437;DHT22;70275;52.198;5.422;2023-05-29T15:17:44;21.80;38.00
17437;DHT22;70275;52.198;5.422;2023-05-29T15:20:16;21.90;37.20
17437;DHT22;70275;52.198;5.422;2023-05-29T15:22:48;22.40;37.20
17437;DHT22;70275;52.198;5.422;2023-05-29T15:25:18;21.40;35.40
17437;DHT22;70275;52.198;5.422;2023-05-29T15:27:48;21.70;36.20
17437;DHT22;70275;52.198;5.422;2023-05-29T15:30:19;21.60;36.70
17437;DHT22;70275;52.198;5.422;2023-05-29T15:32:49;22.10;36.70
17437;DHT22;70275;52.198;5.422;2023-05-29T15:35:18;21.20;38.00
17437;DHT22;70275;52.198;5.422;2023-05-29T15:37:49;20.80;37.80
17437;DHT22;70275;52.198;5.422;2023-05-29T15:40:18;20.70;37.90
17437;DHT22;70275;52.198;5.422;2023-05-29T15:42:47;21.50;36.60
17437;DHT22;70275;52.198;5.422;2023-05-29T15:45:16;21.30;37.30
17437;DHT22;70275;52.198;5.422;2023-05-29T15:47:46;21.80;34.80
17437;DHT22;70275;52.198;5.422;2023-05-29T15:50:15;21.80;36.20
17437;DHT22;70275;52.198;5.422;2023-05-29T15:52:44;21.80;36.60
17437;DHT22;70275;52.198;5.422;2023-05-29T15:55:17;22.10;36.40
17437;DHT22;70275;52.198;5.422;2023-05-29T15:57:47;23.10;34.70